Pasinler, Turkey
Current Conditions -  °F | °C
As of 5:20 PM on Saturday 25 Oct 2014 (Local Time) from LTCE Reporting Station
Broken Clouds Broken Clouds  
Wind Chill: 54°   Ceiling: 8000
Heat Index: 54°   Visibility: 6mi
Dew Point: 37°   Wind: 7mph
Humidity: 54%   Direction: 250°WSW
Pressure: 30.09"   Gusts: NA
Location:  39.99°N, 41.69°E
Report Text: LTCE 251420Z 25006KT 9999 SCT030 BKN080 12/03 Q1019 NOSIG
Loading
Personal Weather Stations






























Interactive Weather Map
Tropical Storm Tracking
New forecast layout! Learn more

10-Day Weather Forecast

Advertisements
Track Severe Weather on mobile